Time;durP1;ratioP1;P1;durP2;ratioP2;P2;SDS_P1;SDS_P2;PMS_P1;PMS_P2;Temp;Humidity;BMP_temperature;BMP_pressure;BME280_temperature;BME280_humidity;BME280_pressure;Samples;Min_cycle;Max_cycle;Signal;HPM_P1;HPM_P2
2022/10/26 00:00:50;;;;;;;;;;;;;;;20.28;42.28;98983.78;5031338;28;19967;-77
2022/10/26 00:03:15;;;;;;;;;;;;;;;20.31;42.28;98983.44;5030562;28;19921;-79
2022/10/26 00:05:41;;;;;;;;;;;;;;;20.32;42.16;98983.28;5030056;28;20022;-78
2022/10/26 00:08:06;;;;;;;;;;;;;;;20.35;42.18;98984.72;5030034;28;19917;-79
2022/10/26 00:10:35;;;;;;;;;;;;;;;20.37;42.17;98978.25;5029862;28;20009;-78
2022/10/26 00:13:01;;;;;;;;;;;;;;;20.39;42.11;98976.25;5028807;28;20066;-76
2022/10/26 00:15:26;;;;;;;;;;;;;;;20.41;42.04;98981.38;5031417;28;20418;-80
2022/10/26 00:17:51;;;;;;;;;;;;;;;20.42;42.21;98980.41;5046836;28;19917;-78
2022/10/26 00:20:16;;;;;;;;;;;;;;;20.43;42.12;98985.53;5046149;28;19917;-78
2022/10/26 00:22:42;;;;;;;;;;;;;;;20.47;41.91;98987.81;5029716;28;19918;-77
2022/10/26 00:25:07;;;;;;;;;;;;;;;20.48;41.96;98982.34;5030051;28;19917;-78
2022/10/26 00:27:36;;;;;;;;;;;;;;;20.49;41.85;98991.94;5030122;28;20384;-79
2022/10/26 00:30:01;;;;;;;;;;;;;;;20.52;42.00;98993.44;5029824;28;19948;-76
2022/10/26 00:32:27;;;;;;;;;;;;;;;20.53;41.87;98989.78;5029896;28;20400;-78
2022/10/26 00:34:52;;;;;;;;;;;;;;;20.54;41.85;98988.75;5033242;28;19953;-78
2022/10/26 00:37:17;;;;;;;;;;;;;;;20.56;41.77;98994.75;5033824;28;20443;-79
2022/10/26 00:39:43;;;;;;;;;;;;;;;20.56;41.88;98989.44;5033519;28;19917;-78
2022/10/26 00:42:11;;;;;;;;;;;;;;;20.57;41.88;98996.38;5033755;28;19967;-80
2022/10/26 00:44:56;;;;;;;;;;;;;;;20.58;41.61;98998.03;5033662;28;19925;-79
2022/10/26 00:47:28;;;;;;;;;;;;;;;20.58;41.68;98995.38;5032877;28;19932;-77
2022/10/26 00:49:53;;;;;;;;;;;;;;;20.59;41.73;98989.09;5033725;28;20384;-78
2022/10/26 00:52:18;;;;;;;;;;;;;;;20.60;41.69;98990.72;5035489;28;19924;-80
2022/10/26 00:54:44;;;;;;;;;;;;;;;20.60;41.69;98990.72;5033609;28;19921;-78
2022/10/26 00:57:09;;;;;;;;;;;;;;;20.61;41.71;98984.41;5033642;28;19975;-79
2022/10/26 00:59:35;;;;;;;;;;;;;;;20.60;41.48;98974.81;5033496;28;19932;-79
2022/10/26 01:02:00;;;;;;;;;;;;;;;20.61;41.43;98968.50;5033603;28;20008;-76
2022/10/26 01:04:25;;;;;;;;;;;;;;;20.61;41.59;98971.97;5033607;28;19986;-79
2022/10/26 01:06:51;;;;;;;;;;;;;;;20.60;41.47;98970.34;5033637;28;20459;-74
2022/10/26 01:09:16;;;;;;;;;;;;;;;20.61;41.42;98971.16;5033631;28;20415;-78
2022/10/26 01:11:41;;;;;;;;;;;;;;;20.62;41.46;98975.47;5032810;28;19917;-75
2022/10/26 01:14:07;;;;;;;;;;;;;;;20.61;41.44;98989.72;5033435;28;19917;-77
2022/10/26 01:16:41;;;;;;;;;;;;;;;20.62;41.43;98986.09;5033087;28;19967;-78
2022/10/26 01:19:23;;;;;;;;;;;;;;;20.60;41.35;98983.59;5029499;28;19940;-77
2022/10/26 01:21:56;;;;;;;;;;;;;;;20.60;41.39;98980.97;5030779;28;19924;-78
2022/10/26 01:24:40;;;;;;;;;;;;;;;20.60;41.09;98982.75;5033070;28;20400;-76
2022/10/26 01:27:17;;;;;;;;;;;;;;;20.58;41.33;98982.13;5027575;28;19947;-79
2022/10/26 01:29:58;;;;;;;;;;;;;;;20.57;41.32;98978.66;5033053;28;19921;-79
2022/10/26 01:32:29;;;;;;;;;;;;;;;20.56;41.47;98981.47;5029469;28;20348;-78
2022/10/26 01:35:08;;;;;;;;;;;;;;;20.56;41.41;98981.47;5033386;28;19917;-79
2022/10/26 01:37:35;;;;;;;;;;;;;;;20.54;41.13;98971.03;5029712;28;19964;-79
2022/10/26 01:40:13;;;;;;;;;;;;;;;20.54;41.32;98972.84;5032592;28;20778;-77
2022/10/26 01:42:39;;;;;;;;;;;;;;;20.53;41.30;98968.56;5031836;28;19924;-79
2022/10/26 01:45:05;;;;;;;;;;;;;;;20.53;41.30;98968.56;5032185;28;19917;-79
2022/10/26 01:47:31;;;;;;;;;;;;;;;20.51;41.09;98974.06;5032174;28;20344;-77
2022/10/26 01:49:57;;;;;;;;;;;;;;;20.50;41.08;98971.56;5032524;28;19924;-79
2022/10/26 01:52:22;;;;;;;;;;;;;;;20.47;41.12;98979.88;5032500;28;19980;-78
2022/10/26 01:54:47;;;;;;;;;;;;;;;20.44;41.33;98978.38;5031541;28;19978;-78
2022/10/26 01:57:13;;;;;;;;;;;;;;;20.42;41.39;98980.41;5032620;28;19921;-78
2022/10/26 01:59:39;;;;;;;;;;;;;;;20.39;41.29;98978.91;5033543;28;20035;-79
2022/10/26 02:02:13;;;;;;;;;;;;;;;20.37;41.45;98980.09;5033266;28;20008;-80
2022/10/26 02:04:57;;;;;;;;;;;;;;;20.34;41.40;98978.63;5033865;28;20011;-78
2022/10/26 02:07:41;;;;;;;;;;;;;;;20.31;41.68;98978.97;5031210;28;19968;-78
2022/10/26 02:10:13;;;;;;;;;;;;;;;20.27;41.69;98985.59;5028153;28;19924;-78
2022/10/26 02:12:51;;;;;;;;;;;;;;;20.24;41.70;98981.47;5031828;28;19917;-79
2022/10/26 02:15:16;;;;;;;;;;;;;;;20.22;41.80;98995.91;5030683;28;19940;-79
2022/10/26 02:18:11;;;;;;;;;;;;;;;20.17;41.61;99007.00;5033075;28;19921;-76
2022/10/26 02:20:38;;;;;;;;;;;;;;;20.13;41.87;99002.22;4982309;28;19918;-78
2022/10/26 02:23:04;;;;;;;;;;;;;;;20.11;41.82;98999.75;4980767;28;19918;-79
2022/10/26 02:25:30;;;;;;;;;;;;;;;20.08;42.10;99015.19;4982429;28;20412;-79
2022/10/26 02:28:00;;;;;;;;;;;;;;;20.05;41.91;99011.88;4965747;28;19918;-79
2022/10/26 02:30:26;;;;;;;;;;;;;;;20.02;42.13;99014.03;4963911;28;19918;-79
2022/10/26 02:32:52;;;;;;;;;;;;;;;20.01;42.25;99015.03;4982296;28;19980;-79
2022/10/26 02:35:18;;;;;;;;;;;;;;;19.98;42.26;99007.44;4965911;28;19918;-78
2022/10/26 02:37:43;;;;;;;;;;;;;;;19.94;42.39;99008.75;4980575;28;20321;-78
2022/10/26 02:40:10;;;;;;;;;;;;;;;19.91;42.49;99007.28;4981877;28;19918;-79
2022/10/26 02:42:36;;;;;;;;;;;;;;;19.88;42.59;99010.28;4965174;28;20433;-78
2022/10/26 02:45:05;;;;;;;;;;;;;;;19.86;42.59;99004.31;4980244;28;19972;-77
2022/10/26 02:47:30;;;;;;;;;;;;;;;19.81;42.60;99007.47;4965297;28;19961;-77
2022/10/26 02:49:56;;;;;;;;;;;;;;;19.79;42.72;99012.13;4965227;28;20064;-80
2022/10/26 02:52:21;;;;;;;;;;;;;;;19.76;42.72;99012.44;4980225;28;19926;-78
2022/10/26 02:54:46;;;;;;;;;;;;;;;19.73;42.80;99018.06;4981525;28;19945;-79
2022/10/26 02:57:16;;;;;;;;;;;;;;;19.73;42.83;99018.06;5017748;28;19932;-77
2022/10/26 02:59:41;;;;;;;;;;;;;;;19.69;42.82;99009.63;5031003;28;19932;-78
2022/10/26 03:02:07;;;;;;;;;;;;;;;19.68;42.97;99009.81;5030909;28;19917;-79
2022/10/26 03:04:32;;;;;;;;;;;;;;;19.65;42.93;99018.09;5032362;28;19924;-76
2022/10/26 03:06:58;;;;;;;;;;;;;;;19.64;42.99;99014.63;5030335;28;19932;-78
2022/10/26 03:09:23;;;;;;;;;;;;;;;19.64;42.93;99017.25;5030665;28;19944;-78
2022/10/26 03:11:48;;;;;;;;;;;;;;;19.61;42.88;99007.00;5032302;28;19917;-81
2022/10/26 03:14:14;;;;;;;;;;;;;;;19.62;42.88;99008.63;5031125;28;20000;-79
2022/10/26 03:16:39;;;;;;;;;;;;;;;19.61;43.09;99009.66;5030516;28;19917;-78
2022/10/26 03:19:04;;;;;;;;;;;;;;;19.61;42.89;99012.31;5030536;28;19924;-79
2022/10/26 03:21:30;;;;;;;;;;;;;;;19.61;42.73;99016.75;5028735;28;19984;-79
2022/10/26 03:23:55;;;;;;;;;;;;;;;19.61;42.61;99020.25;5032789;28;19948;-81
2022/10/26 03:26:20;;;;;;;;;;;;;;;19.62;42.45;99021.06;5030457;28;19925;-81
2022/10/26 03:28:45;;;;;;;;;;;;;;;19.64;42.41;99029.66;5026343;28;19940;-78
2022/10/26 03:31:11;;;;;;;;;;;;;;;19.66;42.35;99032.97;5030312;28;20384;-80
2022/10/26 03:33:36;;;;;;;;;;;;;;;19.68;42.21;99033.63;5030545;28;20008;-78
2022/10/26 03:36:01;;;;;;;;;;;;;;;19.68;42.19;99034.44;5030852;28;19921;-79
2022/10/26 03:38:27;;;;;;;;;;;;;;;19.70;42.01;99035.13;5030200;28;19917;-73
2022/10/26 03:40:52;;;;;;;;;;;;;;;19.71;41.94;99025.34;5030101;28;19960;-74
2022/10/26 03:43:17;;;;;;;;;;;;;;;19.74;41.79;99029.50;5030079;28;19921;-78
2022/10/26 03:45:43;;;;;;;;;;;;;;;19.74;41.67;99024.19;5030522;28;19917;-79
2022/10/26 03:48:08;;;;;;;;;;;;;;;19.74;41.63;99022.38;5030563;28;20420;-80
2022/10/26 03:50:33;;;;;;;;;;;;;;;19.79;46.26;99029.84;5032175;28;20019;-79
2022/10/26 03:52:59;;;;;;;;;;;;;;;19.82;45.39;99027.66;5046509;28;19921;-85
2022/10/26 03:55:24;;;;;;;;;;;;;;;19.87;44.89;99022.69;5031628;28;19921;-79
2022/10/26 03:57:49;;;;;;;;;;;;;;;19.91;45.11;99022.34;5046269;28;20419;-79
2022/10/26 04:00:16;;;;;;;;;;;;;;;19.94;45.84;99025.50;5029586;28;19959;-77
2022/10/26 04:02:48;;;;;;;;;;;;;;;19.96;46.51;99026.16;5029687;28;19925;-73
2022/10/26 04:05:15;;;;;;;;;;;;;;;20.02;49.07;99030.78;5031132;28;20008;-78
2022/10/26 04:07:40;;;;;;;;;;;;;;;20.15;49.07;99032.88;5038594;28;19917;-81
2022/10/26 04:10:06;;;;;;;;;;;;;;;20.22;49.14;99033.81;5031660;28;19986;-84
2022/10/26 04:12:31;;;;;;;;;;;;;;;20.24;48.77;99042.44;5030434;28;19925;-77
2022/10/26 04:14:57;;;;;;;;;;;;;;;20.39;49.84;99044.38;5029673;28;20442;-72
2022/10/26 04:17:23;;;;;;;;;;;;;;;20.48;48.31;99042.50;5029767;28;19925;-74
2022/10/26 04:19:48;;;;;;;;;;;;;;;20.52;45.79;99044.63;5030877;28;20400;-73
2022/10/26 04:22:13;;;;;;;;;;;;;;;20.50;44.27;99041.34;5045659;28;20030;-73
2022/10/26 04:24:39;;;;;;;;;;;;;;;20.48;43.26;99042.50;5029548;28;19957;-72
2022/10/26 04:27:04;;;;;;;;;;;;;;;20.49;42.10;99050.28;5029825;28;20379;-73
2022/10/26 04:29:29;;;;;;;;;;;;;;;20.50;41.86;99051.94;5030866;28;19917;-72
2022/10/26 04:31:54;;;;;;;;;;;;;;;20.49;40.44;99039.66;5030095;28;19924;-79
2022/10/26 04:34:20;;;;;;;;;;;;;;;20.46;39.97;99057.75;5029117;28;20260;-79
2022/10/26 04:36:45;;;;;;;;;;;;;;;20.42;39.12;99054.63;5029509;28;19971;-78
2022/10/26 04:39:10;;;;;;;;;;;;;;;20.39;38.93;99061.09;5030933;28;20015;-78
2022/10/26 04:41:36;;;;;;;;;;;;;;;20.38;38.68;99061.28;5029494;28;19924;-77
2022/10/26 04:44:01;;;;;;;;;;;;;;;20.37;38.30;99056.97;5029970;28;20029;-81
2022/10/26 04:46:26;;;;;;;;;;;;;;;20.36;38.37;99065.94;5026873;28;19917;-79
2022/10/26 04:48:51;;;;;;;;;;;;;;;20.40;43.64;99065.41;5029499;28;19924;-76
2022/10/26 04:51:17;;;;;;;;;;;;;;;20.45;41.42;99056.09;5029339;28;19983;-78
2022/10/26 04:53:42;;;;;;;;;;;;;;;20.52;40.59;99059.72;5045857;28;20421;-77
2022/10/26 04:56:07;;;;;;;;;;;;;;;20.63;39.73;99058.50;5030896;28;20297;-80
2022/10/26 04:58:33;;;;;;;;;;;;;;;20.66;39.54;99064.31;5029613;28;20392;-79
2022/10/26 05:00:59;;;;;;;;;;;;;;;20.80;39.02;99075.19;5030491;28;19924;-73
2022/10/26 05:03:25;;;;;;;;;;;;;;;21.10;38.14;99069.03;5029274;28;19971;-75
2022/10/26 05:05:50;;;;;;;;;;;;;;;21.39;37.17;99078.09;5027054;28;20002;-77
2022/10/26 05:08:15;;;;;;;;;;;;;;;21.71;36.10;99080.66;5029238;28;19917;-75
2022/10/26 05:10:41;;;;;;;;;;;;;;;22.07;35.46;99080.78;5029846;28;19925;-74
2022/10/26 05:13:06;;;;;;;;;;;;;;;22.43;34.52;99092.56;5029252;28;20376;-75
2022/10/26 05:15:31;;;;;;;;;;;;;;;22.77;33.97;99083.94;5029428;28;19918;-75
2022/10/26 05:17:57;;;;;;;;;;;;;;;23.13;33.19;99088.47;5029319;28;19917;-75
2022/10/26 05:20:28;;;;;;;;;;;;;;;23.52;32.60;99091.69;5031625;28;19921;-75
2022/10/26 05:22:53;;;;;;;;;;;;;;;23.90;31.76;99094.88;5032628;28;20418;-75
2022/10/26 05:25:19;;;;;;;;;;;;;;;24.30;31.04;99089.78;5049078;28;19917;-74
2022/10/26 05:27:44;;;;;;;;;;;;;;;24.72;30.28;99089.78;5032740;28;19917;-76
2022/10/26 05:30:10;;;;;;;;;;;;;;;25.16;29.62;99103.63;5031864;28;19917;-77
2022/10/26 05:32:35;;;;;;;;;;;;;;;25.56;28.78;99104.53;5032223;28;20308;-77
2022/10/26 05:35:00;;;;;;;;;;;;;;;25.93;28.36;99112.94;5034171;28;20403;-77
2022/10/26 05:37:29;;;;;;;;;;;;;;;26.30;27.65;99107.97;5031794;28;20012;-76
2022/10/26 05:39:54;;;;;;;;;;;;;;;26.64;27.13;99119.38;5032464;28;19971;-75
2022/10/26 05:42:19;;;;;;;;;;;;;;;26.97;26.89;99117.63;5032224;28;19924;-77
2022/10/26 05:44:45;;;;;;;;;;;;;;;27.29;26.25;99123.78;5033619;28;20388;-77
2022/10/26 05:47:10;;;;;;;;;;;;;;;27.60;25.67;99124.84;5031948;28;19924;-76
2022/10/26 05:49:35;;;;;;;;;;;;;;;27.97;25.59;99130.31;5032459;28;19921;-76
2022/10/26 05:52:01;;;;;;;;;;;;;;;28.40;25.06;99131.31;5031678;28;19921;-76
2022/10/26 05:54:26;;;;;;;;;;;;;;;28.80;24.63;99134.41;5033130;28;19928;-74
2022/10/26 05:56:51;;;;;;;;;;;;;;;29.26;24.43;99139.41;5033052;28;19925;-74
2022/10/26 05:59:17;;;;;;;;;;;;;;;29.67;23.44;99138.53;5034763;28;19928;-74
2022/10/26 06:01:48;;;;;;;;;;;;;;;30.05;23.39;99133.78;5033316;28;19917;-75
2022/10/26 06:04:13;;;;;;;;;;;;;;;30.56;22.62;99147.56;5033205;28;19921;-75
2022/10/26 06:06:40;;;;;;;;;;;;;;;30.95;21.90;99150.50;5032990;28;20305;-74
2022/10/26 06:09:07;;;;;;;;;;;;;;;31.36;21.57;99164.75;5031518;28;19979;-75
2022/10/26 06:11:32;;;;;;;;;;;;;;;31.74;21.19;99160.53;5031876;28;20015;-75
2022/10/26 06:14:00;;;;;;;;;;;;;;;32.13;20.83;99171.41;5032963;28;20059;-75
2022/10/26 06:16:31;;;;;;;;;;;;;;;32.46;20.74;99175.09;5028244;28;20003;-74
2022/10/26 06:19:00;;;;;;;;;;;;;;;32.87;19.95;99183.75;5031542;28;19975;-74
2022/10/26 06:21:45;;;;;;;;;;;;;;;33.31;19.41;99182.88;5032866;28;19924;-74
2022/10/26 06:24:10;;;;;;;;;;;;;;;33.87;18.39;99187.97;5029354;28;19923;-75
2022/10/26 06:26:41;;;;;;;;;;;;;;;34.47;17.74;99188.66;5033063;28;20008;-75
2022/10/26 06:29:17;;;;;;;;;;;;;;;35.07;17.64;99186.44;5032706;28;19956;-75
2022/10/26 06:31:43;;;;;;;;;;;;;;;36.00;16.30;99192.00;5030501;28;19925;-76
2022/10/26 06:34:08;;;;;;;;;;;;;;;36.87;15.77;99196.41;5032961;28;19924;-74
2022/10/26 06:36:33;;;;;;;;;;;;;;;37.90;14.40;99191.06;5031596;28;19921;-75
2022/10/26 06:39:00;;;;;;;;;;;;;;;38.75;14.11;99205.19;5031703;28;20017;-78
2022/10/26 06:41:25;;;;;;;;;;;;;;;39.57;13.38;99204.06;5032554;28;19947;-74
2022/10/26 06:43:52;;;;;;;;;;;;;;;40.33;12.78;99208.47;5031492;28;20015;-76
2022/10/26 06:46:26;;;;;;;;;;;;;;;40.86;12.53;99205.25;5031425;28;19929;-75
2022/10/26 06:49:10;;;;;;;;;;;;;;;41.20;12.08;99209.41;5028330;28;19921;-75
2022/10/26 06:51:39;;;;;;;;;;;;;;;41.28;12.17;99216.13;5029296;28;20012;-74
2022/10/26 06:54:05;;;;;;;;;;;;;;;41.14;12.35;99224.34;5030648;28;20343;-80
2022/10/26 06:56:30;;;;;;;;;;;;;;;40.72;12.18;99226.31;5032390;28;19935;-76
2022/10/26 06:58:55;;;;;;;;;;;;;;;40.15;12.74;99232.03;5031175;28;19917;-75
2022/10/26 07:01:21;;;;;;;;;;;;;;;39.57;13.26;99238.75;5031196;28;19944;-74
2022/10/26 07:03:46;;;;;;;;;;;;;;;39.07;13.94;99244.59;5032232;28;19917;-74
2022/10/26 07:06:11;;;;;;;;;;;;;;;38.65;14.03;99248.94;5030872;28;19921;-79
2022/10/26 07:08:37;;;;;;;;;;;;;;;38.32;14.78;99244.13;5031108;28;19923;-75
2022/10/26 07:11:03;;;;;;;;;;;;;;;38.10;15.10;99246.50;5032080;28;19925;-76
2022/10/26 07:13:28;;;;;;;;;;;;;;;37.93;15.49;99242.28;5029757;28;20300;-75
2022/10/26 07:15:54;;;;;;;;;;;;;;;37.76;15.32;99252.78;5030972;28;20008;-76
2022/10/26 07:18:19;;;;;;;;;;;;;;;37.61;15.71;99256.41;5030464;28;20000;-75
2022/10/26 07:20:44;;;;;;;;;;;;;;;37.53;15.87;99257.81;5030715;28;20028;-76
2022/10/26 07:23:10;;;;;;;;;;;;;;;37.41;15.62;99257.34;5030127;28;20320;-75
2022/10/26 07:25:37;;;;;;;;;;;;;;;37.37;16.11;99251.66;5031664;28;20389;-75
2022/10/26 07:28:03;;;;;;;;;;;;;;;37.43;15.82;99257.88;5031641;28;19925;-74
2022/10/26 07:30:28;;;;;;;;;;;;;;;37.55;15.82;99258.34;5030468;28;19917;-73
2022/10/26 07:32:57;;;;;;;;;;;;;;;37.59;15.68;99251.25;5031713;28;19947;-75
2022/10/26 07:35:23;;;;;;;;;;;;;;;37.68;15.54;99251.44;5030426;28;19932;-76
2022/10/26 07:37:48;;;;;;;;;;;;;;;37.62;16.04;99247.94;5030411;28;19917;-75
2022/10/26 07:40:13;;;;;;;;;;;;;;;37.63;16.18;99246.03;5046679;28;20712;-75
2022/10/26 07:42:38;;;;;;;;;;;;;;;37.61;16.19;99246.31;5031475;28;19917;-76
2022/10/26 07:45:04;;;;;;;;;;;;;;;37.61;15.93;99248.22;5030170;28;19921;-75
2022/10/26 07:47:29;;;;;;;;;;;;;;;37.74;15.95;99246.81;5031419;28;20388;-75
2022/10/26 07:49:55;;;;;;;;;;;;;;;37.81;15.99;99250.00;5029793;28;19917;-75
2022/10/26 07:52:20;;;;;;;;;;;;;;;37.87;16.11;99243.41;5046510;28;19971;-75
2022/10/26 07:54:45;;;;;;;;;;;;;;;37.87;15.69;99243.41;5031381;28;19921;-74
2022/10/26 07:57:10;;;;;;;;;;;;;;;37.92;15.90;99242.56;5029893;28;19948;-75
2022/10/26 07:59:36;;;;;;;;;;;;;;;37.96;15.63;99241.69;5029836;28;19983;-75
2022/10/26 08:02:01;;;;;;;;;;;;;;;38.01;15.42;99240.84;5031117;28;20403;-76
2022/10/26 08:04:26;;;;;;;;;;;;;;;38.04;15.81;99247.63;5029919;28;19917;-77
2022/10/26 08:06:52;;;;;;;;;;;;;;;38.12;15.20;99239.63;5046111;28;19917;-75
2022/10/26 08:09:17;;;;;;;;;;;;;;;38.16;15.56;99238.00;5030959;28;19918;-76
2022/10/26 08:11:42;;;;;;;;;;;;;;;38.24;15.30;99239.28;5029915;28;19925;-76
2022/10/26 08:14:09;;;;;;;;;;;;;;;38.37;14.85;99240.53;5031014;28;19924;-75
2022/10/26 08:16:34;;;;;;;;;;;;;;;38.50;14.63;99230.84;5029969;28;20023;-78
2022/10/26 08:18:59;;;;;;;;;;;;;;;38.53;14.79;99238.44;5029485;28;20000;-75
2022/10/26 08:21:24;;;;;;;;;;;;;;;38.67;14.74;99238.59;5029655;28;19971;-76
2022/10/26 08:23:50;;;;;;;;;;;;;;;38.70;15.06;99244.25;5029792;28;19921;-75
2022/10/26 08:26:17;;;;;;;;;;;;;;;38.77;15.21;99243.09;5030914;28;19947;-76
2022/10/26 08:28:42;;;;;;;;;;;;;;;38.88;14.81;99242.66;5030009;28;20027;-75
2022/10/26 08:31:07;;;;;;;;;;;;;;;39.01;15.03;99246.59;5030466;28;20413;-75
2022/10/26 08:33:33;;;;;;;;;;;;;;;39.10;14.76;99245.97;5048170;28;19924;-76
2022/10/26 08:35:59;;;;;;;;;;;;;;;39.21;14.77;99251.00;5029792;28;20364;-75
2022/10/26 08:38:24;;;;;;;;;;;;;;;39.33;14.45;99250.56;5029311;28;19921;-75
2022/10/26 08:40:49;;;;;;;;;;;;;;;39.40;14.66;99253.72;5029135;28;19918;-75
2022/10/26 08:43:21;;;;;;;;;;;;;;;39.44;14.70;99254.75;5029885;28;19951;-76
2022/10/26 08:45:54;;;;;;;;;;;;;;;39.51;14.62;99251.66;5030939;28;19967;-76
2022/10/26 08:48:20;;;;;;;;;;;;;;;39.60;14.52;99254.56;5030942;28;19967;-76
2022/10/26 08:50:52;;;;;;;;;;;;;;;39.69;14.37;99255.47;5045683;28;20016;-75
2022/10/26 08:53:37;;;;;;;;;;;;;;;39.76;14.19;99257.84;5030816;28;19971;-75
2022/10/26 08:56:02;;;;;;;;;;;;;;;39.83;14.19;99260.19;5032620;28;19932;-77
2022/10/26 08:58:33;;;;;;;;;;;;;;;39.95;13.78;99261.34;5034873;28;20003;-76
2022/10/26 09:00:58;;;;;;;;;;;;;;;40.34;13.43;99264.78;5032869;28;19998;-76
2022/10/26 09:03:23;;;;;;;;;;;;;;;40.78;12.95;99268.06;5034542;28;20373;-74
2022/10/26 09:06:04;;;;;;;;;;;;;;;41.22;12.75;99256.47;5033426;28;20373;-75
2022/10/26 09:08:49;;;;;;;;;;;;;;;41.46;12.28;99266.34;5030430;28;19956;-76
2022/10/26 09:11:18;;;;;;;;;;;;;;;41.35;12.27;99262.25;5029712;28;19928;-76
2022/10/26 09:13:54;;;;;;;;;;;;;;;41.19;12.76;99265.28;5032794;28;19940;-75
2022/10/26 09:16:19;;;;;;;;;;;;;;;41.09;12.69;99261.97;5030433;28;20416;-77
2022/10/26 09:18:52;;;;;;;;;;;;;;;40.97;12.73;99259.78;5034130;28;19925;-75
2022/10/26 09:21:30;;;;;;;;;;;;;;;40.81;13.14;99260.06;5034282;28;19925;-75
2022/10/26 09:23:58;;;;;;;;;;;;;;;40.66;12.94;99254.88;5029245;28;19921;-74
2022/10/26 09:26:26;;;;;;;;;;;;;;;40.48;13.45;99259.34;5034012;28;19921;-75
2022/10/26 09:28:51;;;;;;;;;;;;;;;40.38;13.16;99246.66;5033916;28;20385;-74
2022/10/26 09:31:17;;;;;;;;;;;;;;;40.34;13.69;99256.56;5032754;28;19924;-75
2022/10/26 09:33:42;;;;;;;;;;;;;;;40.31;13.41;99260.75;5031511;28;19921;-74
2022/10/26 09:36:09;;;;;;;;;;;;;;;40.19;13.65;99254.16;5032485;28;20389;-76
2022/10/26 09:38:46;;;;;;;;;;;;;;;40.15;13.40;99264.84;5032509;28;19921;-76
2022/10/26 09:41:28;;;;;;;;;;;;;;;40.06;13.66;99261.19;5028935;28;20012;-76
2022/10/26 09:43:56;;;;;;;;;;;;;;;40.02;13.39;99260.19;5028463;28;19917;-76
2022/10/26 09:46:32;;;;;;;;;;;;;;;39.83;13.54;99261.00;5032407;28;20396;-77
2022/10/26 09:48:57;;;;;;;;;;;;;;;39.73;13.95;99258.44;5030293;28;20301;-76
2022/10/26 09:51:25;;;;;;;;;;;;;;;39.69;13.85;99260.16;5032478;28;19971;-76
2022/10/26 09:53:51;;;;;;;;;;;;;;;39.68;13.98;99253.88;5045620;28;20028;-74
2022/10/26 09:56:16;;;;;;;;;;;;;;;39.67;14.16;99249.50;5033625;28;20012;-75
2022/10/26 09:58:43;;;;;;;;;;;;;;;39.52;14.24;99244.25;5032303;28;19944;-75
2022/10/26 10:01:21;;;;;;;;;;;;;;;39.49;14.01;99245.69;5029178;28;19952;-75
2022/10/26 10:03:46;;;;;;;;;;;;;;;39.28;14.50;99245.16;5033195;28;19947;-76
2022/10/26 10:06:16;;;;;;;;;;;;;;;39.20;14.41;99243.09;5031718;28;19917;-75
2022/10/26 10:08:42;;;;;;;;;;;;;;;39.03;14.32;99241.66;5032092;28;19998;-74
2022/10/26 10:11:08;;;;;;;;;;;;;;;38.91;14.50;99244.00;5031854;28;20000;-75
2022/10/26 10:13:43;;;;;;;;;;;;;;;38.69;14.74;99233.63;5032259;28;19917;-76
2022/10/26 10:16:09;;;;;;;;;;;;;;;38.43;14.69;99230.34;5032841;28;19920;-76
2022/10/26 10:18:35;;;;;;;;;;;;;;;38.27;15.36;99233.28;5032840;28;19975;-74
2022/10/26 10:21:00;;;;;;;;;;;;;;;38.09;14.95;99232.03;5031519;28;19925;-74
2022/10/26 10:23:27;;;;;;;;;;;;;;;37.74;15.26;99231.25;5032821;28;19995;-74
2022/10/26 10:25:59;;;;;;;;;;;;;;;37.66;15.23;99231.84;5032915;28;19928;-75
2022/10/26 10:28:24;;;;;;;;;;;;;;;37.54;15.29;99232.19;5031166;28;19925;-77
2022/10/26 10:30:54;;;;;;;;;;;;;;;37.42;15.73;99239.94;5032708;28;20281;-75
2022/10/26 10:33:19;;;;;;;;;;;;;;;37.28;15.85;99232.38;5047852;28;19925;-76
2022/10/26 10:35:51;;;;;;;;;;;;;;;37.15;15.47;99232.16;5031299;28;20000;-74
2022/10/26 10:38:17;;;;;;;;;;;;;;;37.00;15.94;99220.25;5031005;28;19971;-76
2022/10/26 10:40:48;;;;;;;;;;;;;;;36.94;16.24;99215.94;5031260;28;20423;-76
2022/10/26 10:43:13;;;;;;;;;;;;;;;36.84;16.34;99216.00;5029180;28;19960;-76
2022/10/26 10:45:38;;;;;;;;;;;;;;;36.73;16.27;99215.22;5031090;28;20363;-76
2022/10/26 10:48:04;;;;;;;;;;;;;;;36.58;16.82;99214.16;5031241;28;19929;-75
2022/10/26 10:50:30;;;;;;;;;;;;;;;36.38;16.52;99212.31;5028239;28;20373;-76
2022/10/26 10:53:15;;;;;;;;;;;;;;;36.14;16.87;99208.56;5030933;28;19921;-74
2022/10/26 10:55:41;;;;;;;;;;;;;;;36.03;16.97;99207.75;5029850;28;19929;-75
2022/10/26 10:58:22;;;;;;;;;;;;;;;35.79;17.17;99205.59;5030397;28;20308;-77
2022/10/26 11:00:48;;;;;;;;;;;;;;;35.53;17.25;99198.50;5031914;28;19917;-76
2022/10/26 11:03:15;;;;;;;;;;;;;;;35.38;17.44;99193.88;5032529;28;19948;-76
2022/10/26 11:05:52;;;;;;;;;;;;;;;35.22;17.57;99195.69;5032202;28;20343;-75
2022/10/26 11:08:36;;;;;;;;;;;;;;;34.99;17.63;99200.53;5029207;28;19917;-77
2022/10/26 11:11:03;;;;;;;;;;;;;;;34.78;18.17;99199.66;5029910;28;19917;-75
2022/10/26 11:13:30;;;;;;;;;;;;;;;34.56;18.04;99207.94;5030645;28;20277;-77
2022/10/26 11:15:58;;;;;;;;;;;;;;;34.37;17.94;99204.88;5030543;28;19921;-76
2022/10/26 11:18:26;;;;;;;;;;;;;;;34.18;18.75;99204.44;5030036;28;20020;-76
2022/10/26 11:21:01;;;;;;;;;;;;;;;34.01;18.24;99200.00;5028073;28;19917;-74
2022/10/26 11:23:43;;;;;;;;;;;;;;;33.81;18.61;99199.84;5030510;28;19921;-74
2022/10/26 11:26:10;;;;;;;;;;;;;;;33.56;19.19;99200.41;5030247;28;20297;-75
2022/10/26 11:28:36;;;;;;;;;;;;;;;33.36;19.36;99191.84;5030243;28;20451;-75
2022/10/26 11:31:02;;;;;;;;;;;;;;;33.23;19.59;99199.59;5031608;28;19924;-74
2022/10/26 11:33:29;;;;;;;;;;;;;;;33.13;19.38;99192.13;5030230;28;19921;-75
2022/10/26 11:35:59;;;;;;;;;;;;;;;32.94;19.69;99194.34;5030113;28;19918;-75
2022/10/26 11:38:45;;;;;;;;;;;;;;;32.79;20.09;99200.41;5046665;28;20673;-75
2022/10/26 11:41:13;;;;;;;;;;;;;;;32.67;20.26;99194.31;5031586;28;20412;-77
2022/10/26 11:43:48;;;;;;;;;;;;;;;32.54;20.28;99200.88;5031775;28;19917;-78
2022/10/26 11:46:17;;;;;;;;;;;;;;;32.42;20.49;99196.41;5025742;28;20018;-76
2022/10/26 11:48:59;;;;;;;;;;;;;;;32.24;20.39;99189.38;5030169;28;19921;-75
2022/10/26 11:51:40;;;;;;;;;;;;;;;32.08;20.48;99198.31;5028668;28;20309;-75
2022/10/26 11:54:24;;;;;;;;;;;;;;;31.89;20.73;99198.56;5029830;28;20364;-76
2022/10/26 11:56:50;;;;;;;;;;;;;;;31.71;20.80;99198.81;5031185;28;19964;-75
2022/10/26 11:59:17;;;;;;;;;;;;;;;31.55;21.05;99198.56;5030097;28;19956;-75
2022/10/26 12:01:43;;;;;;;;;;;;;;;31.42;21.07;99193.41;5029980;28;19917;-75
2022/10/26 12:04:08;;;;;;;;;;;;;;;31.28;21.28;99187.53;5029795;28;19924;-76
2022/10/26 12:06:33;;;;;;;;;;;;;;;31.13;21.26;99179.16;5029932;28;20253;-75
2022/10/26 12:08:59;;;;;;;;;;;;;;;31.02;21.50;99181.63;5029997;28;19924;-75
2022/10/26 12:11:30;;;;;;;;;;;;;;;30.87;21.51;99188.56;5031320;28;19925;-76
2022/10/26 12:13:55;;;;;;;;;;;;;;;30.77;22.30;99183.81;5027117;28;19953;-74
2022/10/26 12:16:24;;;;;;;;;;;;;;;30.67;22.35;99189.81;5030860;28;20407;-75
2022/10/26 12:19:00;;;;;;;;;;;;;;;30.59;22.66;99184.78;5029596;28;20406;-75
2022/10/26 12:21:28;;;;;;;;;;;;;;;30.54;22.50;99182.81;5029821;28;19968;-75
2022/10/26 12:24:00;;;;;;;;;;;;;;;30.53;22.78;99188.44;5028898;28;20385;-74
2022/10/26 12:26:26;;;;;;;;;;;;;;;30.46;22.91;99184.00;5029259;28;19979;-75
2022/10/26 12:29:00;;;;;;;;;;;;;;;30.42;22.87;99190.09;5031583;28;19921;-75
2022/10/26 12:31:31;;;;;;;;;;;;;;;30.34;22.70;99185.84;5034949;28;19925;-75
2022/10/26 12:33:57;;;;;;;;;;;;;;;30.26;22.85;99187.00;5033490;28;20297;-75
2022/10/26 12:36:41;;;;;;;;;;;;;;;30.13;22.64;99180.00;5033582;28;19986;-75
2022/10/26 12:39:15;;;;;;;;;;;;;;;30.07;22.72;99178.25;5034273;28;20341;-76
2022/10/26 12:41:40;;;;;;;;;;;;;;;30.03;22.50;99179.78;5033565;28;19917;-74
2022/10/26 12:44:25;;;;;;;;;;;;;;;29.90;23.07;99174.59;5033497;28;20443;-76
2022/10/26 12:46:51;;;;;;;;;;;;;;;29.82;23.36;99181.16;5044847;28;19975;-76
2022/10/26 12:49:39;;;;;;;;;;;;;;;29.78;23.07;99183.47;5033653;28;19921;-75
2022/10/26 12:52:12;;;;;;;;;;;;;;;29.76;23.29;99182.88;5025416;28;19923;-74